Latest Weather Observations for Moruya Airport

IDN60901

Issued at 6:41 pm EDT Tuesday 17 October 2017 (issued every 10 minutes, with the page automatically refreshed every 10 minutes)

About weather observations | Map of Canberra area stations | Latest observations for Canberra area | Other Formats
Station Details ID: 069148 Name: MORUYA AIRPORT AWS Lat: -35.90 Lon: 150.14 Height: 4.0 m
Data from the previous 72 hours. | See also: Recent months at Moruya Airport
Date/Time
EDT
Temp
°C
App
Temp
°C
Dew
Point
°C
Rel
Hum
%
Delta-T
°C
Wind Press
QNH
hPa
Press
MSL
hPa
Rain since
9am
mm
Dir  Spd
km/h
Gust
km/h
Spd
kts
Gust
kts
17/06:30pm 19.6 14.6 13.3 67 3.6 NNE 32 43 17 23 1025.1 1025.1 0.0
17/06:00pm 20.0 14.6 12.7 63 4.1 NNE 33 41 18 22 1024.8 1024.8 0.0
17/05:30pm 20.6 15.4 13.3 63 4.2 NNE 33 43 18 23 1024.7 1024.7 0.0
17/05:00pm 20.8 15.1 13.0 61 4.4 NNE 35 46 19 25 1024.5 1024.5 0.0
17/04:30pm 21.2 15.5 13.1 60 4.6 NNE 35 44 19 24 1024.4 1024.4 0.0
17/04:00pm 21.3 16.2 13.2 60 4.6 NNE 32 43 17 23 1024.5 1024.5 0.0
17/03:30pm 21.9 16.9 13.3 58 4.9 NE 32 43 17 23 1024.6 1024.6 0.0
17/03:00pm 21.3 16.6 13.2 60 4.6 NE 30 41 16 22 1024.8 1024.8 0.0
17/02:30pm 21.3 16.6 13.2 60 4.6 NE 30 39 16 21 1025.3 1025.3 0.0
17/02:00pm 21.2 17.6 14.1 64 4.1 NE 26 35 14 19 1025.8 1025.8 0.0
17/01:30pm 21.3 18.1 14.2 64 4.1 NE 24 33 13 18 1026.1 1026.1 0.0
17/01:00pm 21.5 18.5 14.9 66 3.9 NE 24 30 13 16 1026.4 1026.4 0.0
17/12:30pm 20.5 17.3 14.2 67 3.7 NE 24 28 13 15 1026.8 1026.8 0.0
17/12:00pm 20.7 17.2 13.4 63 4.2 NE 24 32 13 17 1027.0 1027.0 0.0
17/11:30am 20.0 16.0 13.0 64 4.0 NE 26 32 14 17 1027.3 1027.3 0.0
17/11:00am 20.4 17.4 13.6 65 3.9 ENE 22 28 12 15 1027.4 1027.4 0.0
17/10:30am 20.1 16.6 13.3 65 3.9 ENE 24 28 13 15 1027.5 1027.5 0.0
17/10:00am 21.7 17.0 9.3 45 6.6 N 24 39 13 21 1027.4 1027.4 0.0
17/09:30am 20.5 17.6 9.7 50 5.8 N 15 22 8 12 1027.4 1027.4 0.0
17/09:00am 19.3 17.0 10.3 56 4.8 NNW 13 19 7 10 1027.3 1027.3 0.0
17/08:30am 17.8 16.0 10.7 63 3.8 NNW 11 17 6 9 1027.2 1027.2 0.0
17/08:00am 15.7 14.7 11.1 74 2.4 NNW 7 11 4 6 1027.0 1027.0 0.0
17/07:30am 12.7 10.9 10.8 88 1.0 NNW 11 15 6 8 1026.7 1026.7 0.0
17/07:00am 9.6 7.6 8.5 93 0.5 NNW 9 11 5 6 1026.6 1026.6 0.0
17/06:30am 9.1 6.9 8.0 93 0.5 NW 9 11 5 6 1026.3 1026.3 0.0
17/06:00am 9.8 7.4 8.6 92 0.6 NNW 11 13 6 7 1026.1 1026.1 0.0
17/05:30am 10.0 7.6 8.8 92 0.6 NNW 11 13 6 7 1026.1 1026.1 0.0
17/05:00am 10.2 7.6 9.3 94 0.4 NNW 13 17 7 9 1026.0 1026.0 0.0
17/04:30am 9.4 7.4 8.5 94 0.4 NW 9 11 5 6 1026.1 1026.1 0.0
17/04:00am 9.8 8.2 8.9 94 0.4 NNW 7 9 4 5 1026.1 1026.1 0.0
17/03:42am 10.1 8.3 9.3 95 0.4 NW 9 11 5 6 1026.1 1026.1 0.0
17/03:30am 8.8 7.1 7.7 93 0.5 NW 6 9 3 5 1026.1 1026.1 0.0
17/03:19am 8.8 7.5 7.7 93 0.5 NW 4 6 2 3 1026.3 1026.3 0.0
17/03:14am 8.8 7.5 7.7 93 0.5 NW 4 6 2 3 1026.3 1026.3 0.0
17/03:00am 9.6 9.3 8.7 94 0.4 CALM 0 7 0 4 1026.4 1026.4 0.0
17/02:52am 9.9 9.7 9.0 94 0.4 CALM 0 0 0 0 1026.5 1026.5 0.0
17/02:30am 9.9 9.7 9.0 94 0.4 CALM 0 0 0 0 1026.6 1026.6 0.0
17/02:28am 9.9 9.7 9.0 94 0.4 CALM 0 0 0 0 1026.6 1026.6 0.0
17/02:00am 10.4 10.3 9.3 93 0.5 CALM 0 4 0 2 1026.8 1026.8 0.0
17/01:55am 9.9 9.6 8.7 92 0.6 CALM 0 4 0 2 1026.8 1026.8 0.0
17/01:30am 10.5 10.4 9.4 93 0.5 CALM 0 0 0 0 1026.9 1026.9 0.0
17/01:00am 10.6 10.5 9.4 92 0.6 CALM 0 6 0 3 1027.3 1027.3 0.0
17/12:30am 11.6 11.7 10.3 92 0.7 CALM 0 0 0 0 1027.4 1027.4 0.0
17/12:00am 11.7 10.7 10.4 92 0.7 N 6 9 3 5 1027.4 1027.4 0.0
 
Date/Time
EDT
Temp
°C
App
Temp
°C
Dew
Point
°C
Rel
Hum
%
Delta-T
°C
Wind Press
QNH
hPa
Press
MSL
hPa
Rain since
9am
mm
Dir  Spd
km/h
Gust
km/h
Spd
kts
Gust
kts
16/11:30pm 12.0 11.7 10.2 89 0.9 NNW 2 9 1 5 1027.4 1027.4 0.0
16/11:00pm 12.9 13.3 11.3 90 0.8 CALM 0 6 0 3 1027.4 1027.4 0.0
16/10:30pm 13.5 14.0 11.6 88 1.0 CALM 0 0 0 0 1027.3 1027.3 0.0
16/10:00pm 14.1 14.7 11.8 86 1.2 CALM 0 0 0 0 1027.2 1027.2 0.0
16/09:30pm 15.1 15.7 11.9 81 1.7 CALM 0 6 0 3 1027.0 1027.0 0.0
16/09:00pm 16.5 16.2 12.7 78 2.1 N 6 7 3 4 1026.8 1026.8 0.0
16/08:30pm 16.7 15.9 12.8 78 2.2 N 9 11 5 6 1026.5 1026.5 0.0
16/08:00pm 17.8 15.0 13.3 75 2.5 NNE 20 24 11 13 1026.1 1026.1 0.0
16/07:30pm 18.1 14.3 13.6 75 2.6 NNE 26 32 14 17 1025.9 1025.9 0.0
16/07:00pm 18.5 13.9 13.4 72 2.9 NNE 30 37 16 20 1025.7 1025.7 0.0
16/06:30pm 19.0 15.1 13.2 69 3.3 NNE 26 37 14 20 1025.5 1025.5 0.0
16/06:00pm 19.6 14.8 12.8 65 3.8 NNE 30 37 16 20 1025.4 1025.4 0.0
16/05:30pm 19.9 15.3 13.6 67 3.6 NNE 30 41 16 22 1025.2 1025.2 0.0
16/05:00pm 20.4 15.6 14.1 67 3.6 NE 32 43 17 23 1025.2 1025.2 0.0
16/04:30pm 20.6 16.5 13.8 65 3.9 NE 28 35 15 19 1025.1 1025.1 0.0
16/04:00pm 20.6 16.3 14.3 67 3.6 NE 30 41 16 22 1025.3 1025.3 0.0
16/03:30pm 20.5 16.0 13.9 66 3.8 NE 30 41 16 22 1025.6 1025.6 0.0
16/03:00pm 21.0 18.2 15.3 70 3.4 NE 24 35 13 19 1025.8 1025.8 0.0
16/02:30pm 21.1 18.2 15.2 69 3.5 NE 24 32 13 17 1026.1 1026.1 0.0
16/02:00pm 20.9 17.5 14.8 68 3.6 NE 26 35 14 19 1026.4 1026.4 0.0
16/01:30pm 20.7 17.6 14.4 67 3.7 NE 24 32 13 17 1026.6 1026.6 0.0
16/01:00pm 20.5 16.9 14.2 67 3.6 NE 26 32 14 17 1026.9 1026.9 0.0
16/12:30pm 20.6 17.7 15.2 71 3.2 NE 24 32 13 17 1027.1 1027.1 0.0
16/12:00pm 20.1 16.7 14.7 71 3.1 ENE 26 33 14 18 1027.3 1027.3 0.0
16/11:30am 19.7 18.0 14.7 73 2.9 ENE 17 20 9 11 1027.8 1027.8 0.0
16/11:00am 19.3 17.6 14.6 74 2.7 ENE 17 20 9 11 1028.1 1028.1 0.0
16/10:30am 18.7 17.2 14.2 75 2.6 ENE 15 19 8 10 1028.3 1028.3 0.0
16/10:00am 18.5 16.6 13.1 71 3.0 E 15 17 8 9 1028.2 1028.2 0.0
16/09:30am 18.7 17.6 13.1 70 3.2 ENE 11 13 6 7 1028.2 1028.2 0.0
16/09:00am 18.7 17.9 12.9 69 3.2 S 9 11 5 6 1028.1 1028.1 0.0
16/08:30am 17.6 16.7 12.5 72 2.8 WSW 9 13 5 7 1027.9 1027.9 0.0
16/08:00am 16.4 15.8 12.2 76 2.3 W 7 13 4 7 1027.7 1027.7 0.0
16/07:30am 14.5 14.4 12.2 86 1.2 W 4 7 2 4 1027.5 1027.5 0.0
16/07:00am 13.7 13.2 12.1 90 0.9 WNW 6 7 3 4 1027.2 1027.2 0.0
16/06:30am 13.0 13.1 11.4 90 0.8 W 2 6 1 3 1026.7 1026.7 0.0
16/06:00am 12.9 12.1 11.1 89 0.9 WSW 6 7 3 4 1026.3 1026.3 0.0
16/05:30am 13.3 13.8 11.5 89 1.0 CALM 0 0 0 0 1026.0 1026.0 0.0
16/05:00am 13.6 14.2 11.8 89 1.0 CALM 0 7 0 4 1025.8 1025.8 0.0
16/04:30am 13.5 14.0 11.6 88 1.0 CALM 0 6 0 3 1025.9 1025.9 0.0
16/04:00am 13.3 13.0 11.4 88 1.0 WSW 4 7 2 4 1025.9 1025.9 0.0
16/03:30am 13.4 12.2 11.6 89 1.0 WSW 9 13 5 7 1026.0 1026.0 0.0
16/03:00am 13.1 12.3 11.8 92 0.7 WSW 7 13 4 7 1026.1 1026.1 0.0
16/02:30am 12.9 12.1 11.6 92 0.7 WSW 7 9 4 5 1026.3 1026.3 0.0
16/02:00am 12.5 11.9 11.6 94 0.5 W 6 9 3 5 1026.4 1026.4 0.0
16/01:30am 11.7 11.2 10.6 93 0.6 WSW 4 7 2 4 1026.7 1026.7 0.0
16/01:00am 11.1 11.1 9.9 92 0.6 CALM 0 0 0 0 1026.8 1026.8 0.0
16/12:30am 11.7 11.9 10.6 93 0.6 CALM 0 0 0 0 1026.8 1026.8 0.0
16/12:00am 11.4 11.5 10.1 92 0.7 CALM 0 0 0 0 1026.8 1026.8 0.0
 
Date/Time
EDT
Temp
°C
App
Temp
°C
Dew
Point
°C
Rel
Hum
%
Delta-T
°C
Wind Press
QNH
hPa
Press
MSL
hPa
Rain since
9am
mm
Dir  Spd
km/h
Gust
km/h
Spd
kts
Gust
kts
15/11:30pm 11.5 11.6 10.1 91 0.7 CALM 0 0 0 0 1026.8 1026.8 0.0
15/11:00pm 12.1 12.3 10.7 91 0.7 CALM 0 0 0 0 1026.8 1026.8 0.0
15/10:30pm 12.7 13.1 11.3 91 0.7 CALM 0 0 0 0 1026.5 1026.5 0.0
15/10:00pm 12.8 13.1 11.0 89 0.9 CALM 0 0 0 0 1026.4 1026.4 0.0
15/09:30pm 13.2 13.6 11.3 88 1.0 CALM 0 0 0 0 1026.3 1026.3 0.0
15/09:00pm 13.7 14.1 11.2 85 1.3 CALM 0 0 0 0 1026.1 1026.1 0.0
15/08:30pm 15.6 15.1 12.5 82 1.7 N 7 11 4 6 1025.7 1025.7 0.0
15/08:00pm 17.0 15.3 13.5 80 2.0 NNE 15 19 8 10 1025.5 1025.5 0.0
15/07:30pm 17.1 15.7 13.4 79 2.1 NE 13 17 7 9 1025.2 1025.2 0.0
15/07:00pm 17.5 15.7 13.4 77 2.3 NE 15 20 8 11 1024.9 1024.9 0.0
15/06:30pm 18.0 15.4 13.3 74 2.7 NE 19 24 10 13 1024.7 1024.7 0.0
15/06:00pm 18.5 15.9 13.1 71 3.0 NE 19 22 10 12 1024.4 1024.4 0.0
15/05:30pm 19.1 16.3 13.3 69 3.3 NE 20 26 11 14 1024.1 1024.1 0.0
15/05:00pm 19.4 16.6 13.1 67 3.6 NE 20 26 11 14 1023.9 1023.9 0.0
15/04:30pm 19.2 15.8 12.5 65 3.7 NE 22 32 12 17 1023.7 1023.7 0.0
15/04:00pm 19.7 16.7 12.7 64 3.9 NE 20 30 11 16 1023.8 1023.8 0.0
15/03:30pm 20.0 16.8 13.0 64 4.0 NE 22 30 12 16 1023.9 1023.9 0.0
15/03:00pm 19.8 16.2 13.0 65 3.8 NE 24 32 13 17 1023.8 1023.8 0.0
15/02:30pm 19.4 15.7 12.7 65 3.8 NE 24 33 13 18 1024.0 1024.0 0.0
15/02:00pm 19.8 16.1 12.8 64 3.9 NE 24 35 13 19 1024.2 1024.2 0.0
15/01:30pm 19.7 15.8 13.4 67 3.6 NE 26 33 14 18 1024.3 1024.3 0.0
15/01:00pm 19.3 15.1 12.3 64 3.9 NE 26 33 14 18 1024.5 1024.5 0.0
15/12:30pm 18.8 14.5 11.9 64 3.8 NE 26 33 14 18 1024.7 1024.7 0.0
15/12:00pm 18.8 14.8 11.9 64 3.8 NE 24 32 13 17 1024.9 1024.9 0.0
15/11:30am 18.5 14.0 11.3 63 3.9 NE 26 33 14 18 1025.1 1025.1 0.0
15/11:00am 18.0 13.8 11.1 64 3.7 ENE 24 28 13 15 1025.3 1025.3 0.0
15/10:30am 18.2 14.6 10.6 61 4.1 ENE 20 24 11 13 1025.5 1025.5 0.0
15/10:00am 17.0 14.0 10.6 66 3.4 ENE 17 19 9 10 1025.6 1025.6 0.0
15/09:30am 17.2 14.5 8.9 58 4.3 ENE 13 15 7 8 1025.7 1025.7 0.0
15/09:00am 16.2 14.4 9.4 64 3.5 ENE 9 13 5 7 1025.5 1025.5 0.0
15/08:30am 13.7 12.3 9.0 73 2.4 SSW 6 9 3 5 1025.4 1025.4 0.0
15/08:00am 10.9 9.4 8.5 85 1.2 SW 6 9 3 5 1025.4 1025.4 0.0
15/07:30am 8.7 8.2 7.8 94 0.4 CALM 0 0 0 0 1025.3 1025.3 0.0
15/07:00am 6.5 5.5 5.6 94 0.4 CALM 0 0 0 0 1025.1 1025.1 0.0
15/06:30am 5.0 3.7 4.1 94 0.4 CALM 0 0 0 0 1024.9 1024.9 0.0
15/06:00am 5.1 3.8 4.2 94 0.4 CALM 0 0 0 0 1024.6 1024.6 0.0
15/05:30am 5.6 4.4 4.7 94 0.4 CALM 0 0 0 0 1024.3 1024.3 0.0
15/05:00am 5.4 4.2 4.4 93 0.4 CALM 0 0 0 0 1024.3 1024.3 0.0
15/04:30am 5.6 4.4 4.6 93 0.4 CALM 0 0 0 0 1024.3 1024.3 0.0
15/04:00am 5.9 3.6 4.7 92 0.5 NW 6 7 3 4 1024.4 1024.4 0.0
15/03:30am 6.3 5.2 5.1 92 0.5 CALM 0 0 0 0 1024.5 1024.5 0.0
15/03:00am 7.2 6.3 6.0 92 0.5 CALM 0 0 0 0 1024.7 1024.7 0.0
15/02:30am 7.3 5.3 6.1 92 0.5 W 6 6 3 3 1024.8 1024.8 0.0
15/02:00am 7.2 5.5 5.7 90 0.7 W 4 6 2 3 1025.0 1025.0 0.0
15/01:30am 7.7 5.7 6.3 91 0.6 W 6 7 3 4 1025.4 1025.4 0.0
15/01:00am 7.6 5.5 5.9 89 0.8 W 6 11 3 6 1025.6 1025.6 0.0
15/12:30am 8.5 6.5 7.0 90 0.7 WNW 7 9 4 5 1025.8 1025.8 0.0
15/12:00am 8.4 6.3 6.7 89 0.8 W 7 9 4 5 1025.8 1025.8 0.0
 
Date/Time
EDT
Temp
°C
App
Temp
°C
Dew
Point
°C
Rel
Hum
%
Delta-T
°C
Wind Press
QNH
hPa
Press
MSL
hPa
Rain since
9am
mm
Dir  Spd
km/h
Gust
km/h
Spd
kts
Gust
kts
14/11:30pm 8.9 6.6 7.4 90 0.7 WNW 9 11 5 6 1026.0 1026.0 0.0
14/11:00pm 8.6 6.4 6.4 86 1.0 WSW 7 7 4 4 1026.2 1026.2 0.0
14/10:30pm 9.1 6.7 7.1 87 0.9 WNW 9 11 5 6 1026.2 1026.2 0.0
14/10:00pm 9.5 7.5 6.9 84 1.2 WNW 7 9 4 5 1026.4 1026.4 0.0
14/09:30pm 10.1 8.8 7.5 84 1.2 WSW 4 6 2 3 1026.4 1026.4 0.0
14/09:00pm 10.3 8.9 7.2 81 1.5 NW 4 7 2 4 1026.3 1026.3 0.0
14/08:30pm 10.9 9.1 7.2 78 1.8 NW 6 7 3 4 1026.1 1026.1 0.0
14/08:00pm 12.4 10.6 7.3 71 2.5 NNW 6 7 3 4 1025.7 1025.7 0.0
14/07:30pm 15.1 13.1 8.6 65 3.3 NE 9 13 5 7 1025.4 1025.4 0.0
14/07:00pm 15.4 12.6 8.6 64 3.4 ENE 13 17 7 9 1025.1 1025.1 0.0

Latest Capital City Observations: Canberra | Sydney | Melbourne | Brisbane | Adelaide | Perth | Hobart | Darwin

Other Formats:

Comma delimited format used in spreadsheet applications
http://www.bom.gov.au/fwo/IDN60903/IDN60903.95937.axf

JavaScript Object Notation format (JSON) in row-major order
http://www.bom.gov.au/fwo/IDN60903/IDN60903.95937.json